sensor_id;sensor_type;location;lat;lon;timestamp;P1;durP1;ratioP1;P2;durP2;ratioP2
60257;SDS011;46115;44.484;11.314;2022-11-20T00:02:51;58.45;;;32.72;;
60257;SDS011;46115;44.484;11.314;2022-11-20T00:06:54;59.40;;;32.63;;
60257;SDS011;46115;44.484;11.314;2022-11-20T00:11:01;52.60;;;30.52;;
60257;SDS011;46115;44.484;11.314;2022-11-20T00:15:05;57.63;;;32.15;;
60257;SDS011;46115;44.484;11.314;2022-11-20T00:19:08;59.55;;;32.20;;
60257;SDS011;46115;44.484;11.314;2022-11-20T00:23:11;53.35;;;31.67;;
60257;SDS011;46115;44.484;11.314;2022-11-20T00:27:15;52.30;;;31.52;;
60257;SDS011;46115;44.484;11.314;2022-11-20T00:31:18;58.60;;;32.88;;
60257;SDS011;46115;44.484;11.314;2022-11-20T00:35:20;51.15;;;28.58;;
60257;SDS011;46115;44.484;11.314;2022-11-20T00:39:23;50.35;;;30.30;;
60257;SDS011;46115;44.484;11.314;2022-11-20T00:47:29;54.33;;;28.90;;
60257;SDS011;46115;44.484;11.314;2022-11-20T00:51:32;49.15;;;28.73;;
60257;SDS011;46115;44.484;11.314;2022-11-20T00:55:34;48.17;;;28.90;;
60257;SDS011;46115;44.484;11.314;2022-11-20T01:03:41;52.67;;;28.48;;
60257;SDS011;46115;44.484;11.314;2022-11-20T01:07:45;51.33;;;29.02;;
60257;SDS011;46115;44.484;11.314;2022-11-20T01:15:51;53.42;;;29.23;;
60257;SDS011;46115;44.484;11.314;2022-11-20T01:19:53;54.53;;;29.38;;
60257;SDS011;46115;44.484;11.314;2022-11-20T01:23:56;47.42;;;28.00;;
60257;SDS011;46115;44.484;11.314;2022-11-20T01:27:59;46.88;;;27.90;;
60257;SDS011;46115;44.484;11.314;2022-11-20T01:32:02;52.72;;;28.92;;
60257;SDS011;46115;44.484;11.314;2022-11-20T01:36:06;48.70;;;27.15;;
60257;SDS011;46115;44.484;11.314;2022-11-20T01:40:09;48.88;;;27.50;;
60257;SDS011;46115;44.484;11.314;2022-11-20T01:44:13;46.13;;;27.55;;
60257;SDS011;46115;44.484;11.314;2022-11-20T01:48:18;47.58;;;27.40;;
60257;SDS011;46115;44.484;11.314;2022-11-20T01:52:24;46.60;;;27.98;;
60257;SDS011;46115;44.484;11.314;2022-11-20T01:56:33;45.63;;;26.73;;
60257;SDS011;46115;44.484;11.314;2022-11-20T02:00:40;45.70;;;27.05;;
60257;SDS011;46115;44.484;11.314;2022-11-20T02:04:44;50.00;;;28.30;;
60257;SDS011;46115;44.484;11.314;2022-11-20T02:08:48;45.92;;;26.60;;
60257;SDS011;46115;44.484;11.314;2022-11-20T02:12:50;44.50;;;26.70;;
60257;SDS011;46115;44.484;11.314;2022-11-20T02:17:11;46.33;;;27.58;;
60257;SDS011;46115;44.484;11.314;2022-11-20T02:21:17;44.55;;;27.23;;
60257;SDS011;46115;44.484;11.314;2022-11-20T02:25:26;41.30;;;26.53;;
60257;SDS011;46115;44.484;11.314;2022-11-20T02:29:32;47.03;;;27.42;;
60257;SDS011;46115;44.484;11.314;2022-11-20T02:33:39;48.53;;;28.33;;
60257;SDS011;46115;44.484;11.314;2022-11-20T02:41:45;50.65;;;28.90;;
60257;SDS011;46115;44.484;11.314;2022-11-20T02:45:48;45.83;;;27.50;;
60257;SDS011;46115;44.484;11.314;2022-11-20T02:49:50;48.17;;;27.65;;
60257;SDS011;46115;44.484;11.314;2022-11-20T02:53:53;41.72;;;26.40;;
60257;SDS011;46115;44.484;11.314;2022-11-20T03:01:58;45.15;;;27.33;;
60257;SDS011;46115;44.484;11.314;2022-11-20T03:06:01;51.47;;;27.98;;
60257;SDS011;46115;44.484;11.314;2022-11-20T03:10:04;40.38;;;25.25;;
60257;SDS011;46115;44.484;11.314;2022-11-20T03:14:08;42.90;;;25.33;;
60257;SDS011;46115;44.484;11.314;2022-11-20T03:18:11;43.67;;;25.30;;
60257;SDS011;46115;44.484;11.314;2022-11-20T03:22:14;42.50;;;25.65;;
60257;SDS011;46115;44.484;11.314;2022-11-20T03:26:17;38.35;;;23.42;;
60257;SDS011;46115;44.484;11.314;2022-11-20T03:30:23;36.75;;;22.73;;
60257;SDS011;46115;44.484;11.314;2022-11-20T03:34:25;34.70;;;21.48;;
60257;SDS011;46115;44.484;11.314;2022-11-20T03:38:28;32.47;;;21.27;;
60257;SDS011;46115;44.484;11.314;2022-11-20T03:42:31;35.08;;;22.25;;
60257;SDS011;46115;44.484;11.314;2022-11-20T03:46:50;39.35;;;24.20;;
60257;SDS011;46115;44.484;11.314;2022-11-20T03:50:52;34.58;;;21.98;;
60257;SDS011;46115;44.484;11.314;2022-11-20T03:54:55;42.17;;;23.35;;
60257;SDS011;46115;44.484;11.314;2022-11-20T03:58:58;37.17;;;22.75;;
60257;SDS011;46115;44.484;11.314;2022-11-20T04:03:02;37.45;;;24.10;;
60257;SDS011;46115;44.484;11.314;2022-11-20T04:07:04;40.15;;;24.33;;
60257;SDS011;46115;44.484;11.314;2022-11-20T04:15:10;41.03;;;25.27;;
60257;SDS011;46115;44.484;11.314;2022-11-20T04:19:14;41.25;;;25.83;;
60257;SDS011;46115;44.484;11.314;2022-11-20T04:23:17;46.13;;;27.08;;
60257;SDS011;46115;44.484;11.314;2022-11-20T04:27:20;47.17;;;28.58;;
60257;SDS011;46115;44.484;11.314;2022-11-20T04:31:23;46.95;;;28.23;;
60257;SDS011;46115;44.484;11.314;2022-11-20T04:35:28;48.95;;;29.33;;
60257;SDS011;46115;44.484;11.314;2022-11-20T04:39:31;52.92;;;31.55;;
60257;SDS011;46115;44.484;11.314;2022-11-20T04:47:35;54.40;;;30.55;;
60257;SDS011;46115;44.484;11.314;2022-11-20T04:51:42;52.10;;;29.73;;
60257;SDS011;46115;44.484;11.314;2022-11-20T04:55:44;49.22;;;31.30;;
60257;SDS011;46115;44.484;11.314;2022-11-20T04:59:47;51.95;;;31.35;;
60257;SDS011;46115;44.484;11.314;2022-11-20T05:03:50;54.15;;;32.38;;
60257;SDS011;46115;44.484;11.314;2022-11-20T05:07:54;51.33;;;31.65;;
60257;SDS011;46115;44.484;11.314;2022-11-20T05:11:58;53.88;;;32.67;;
60257;SDS011;46115;44.484;11.314;2022-11-20T05:20:07;56.50;;;32.13;;
60257;SDS011;46115;44.484;11.314;2022-11-20T05:24:11;52.45;;;32.22;;
60257;SDS011;46115;44.484;11.314;2022-11-20T05:28:14;56.60;;;32.75;;
60257;SDS011;46115;44.484;11.314;2022-11-20T05:32:16;61.70;;;35.55;;
60257;SDS011;46115;44.484;11.314;2022-11-20T05:36:19;60.22;;;35.22;;
60257;SDS011;46115;44.484;11.314;2022-11-20T05:40:23;58.47;;;33.33;;
60257;SDS011;46115;44.484;11.314;2022-11-20T05:44:25;60.22;;;34.35;;
60257;SDS011;46115;44.484;11.314;2022-11-20T05:48:28;61.53;;;36.10;;
60257;SDS011;46115;44.484;11.314;2022-11-20T05:52:30;56.30;;;34.13;;
60257;SDS011;46115;44.484;11.314;2022-11-20T05:56:34;63.88;;;37.25;;
60257;SDS011;46115;44.484;11.314;2022-11-20T06:00:37;58.85;;;34.63;;
60257;SDS011;46115;44.484;11.314;2022-11-20T06:08:41;59.95;;;34.67;;
60257;SDS011;46115;44.484;11.314;2022-11-20T06:12:45;60.35;;;33.78;;
60257;SDS011;46115;44.484;11.314;2022-11-20T06:16:48;57.97;;;34.83;;
60257;SDS011;46115;44.484;11.314;2022-11-20T06:25:00;63.10;;;34.83;;
60257;SDS011;46115;44.484;11.314;2022-11-20T06:33:06;56.25;;;33.53;;
60257;SDS011;46115;44.484;11.314;2022-11-20T06:41:11;60.78;;;34.28;;
60257;SDS011;46115;44.484;11.314;2022-11-20T06:45:16;58.38;;;35.08;;
60257;SDS011;46115;44.484;11.314;2022-11-20T06:49:19;59.28;;;34.58;;
60257;SDS011;46115;44.484;11.314;2022-11-20T06:57:24;50.92;;;31.00;;
60257;SDS011;46115;44.484;11.314;2022-11-20T07:01:27;56.28;;;33.88;;
60257;SDS011;46115;44.484;11.314;2022-11-20T07:05:30;58.10;;;33.85;;
60257;SDS011;46115;44.484;11.314;2022-11-20T07:13:34;54.45;;;33.05;;
60257;SDS011;46115;44.484;11.314;2022-11-20T07:17:38;55.38;;;31.88;;
60257;SDS011;46115;44.484;11.314;2022-11-20T07:21:40;47.13;;;30.05;;
60257;SDS011;46115;44.484;11.314;2022-11-20T07:29:46;42.15;;;27.17;;
60257;SDS011;46115;44.484;11.314;2022-11-20T07:33:49;42.72;;;27.27;;
60257;SDS011;46115;44.484;11.314;2022-11-20T07:37:52;39.38;;;26.38;;
60257;SDS011;46115;44.484;11.314;2022-11-20T07:41:54;39.75;;;25.92;;
60257;SDS011;46115;44.484;11.314;2022-11-20T07:50:00;38.38;;;25.88;;
60257;SDS011;46115;44.484;11.314;2022-11-20T07:54:03;34.95;;;23.88;;
60257;SDS011;46115;44.484;11.314;2022-11-20T07:58:05;35.63;;;25.30;;
60257;SDS011;46115;44.484;11.314;2022-11-20T08:02:09;35.60;;;25.38;;
60257;SDS011;46115;44.484;11.314;2022-11-20T08:06:13;33.00;;;24.70;;
60257;SDS011;46115;44.484;11.314;2022-11-20T08:10:16;26.75;;;21.88;;
60257;SDS011;46115;44.484;11.314;2022-11-20T08:14:19;27.00;;;21.40;;
60257;SDS011;46115;44.484;11.314;2022-11-20T08:18:20;23.55;;;20.13;;
60257;SDS011;46115;44.484;11.314;2022-11-20T08:22:24;28.15;;;21.15;;
60257;SDS011;46115;44.484;11.314;2022-11-20T08:26:26;23.55;;;20.70;;
60257;SDS011;46115;44.484;11.314;2022-11-20T08:30:30;23.13;;;19.58;;
60257;SDS011;46115;44.484;11.314;2022-11-20T08:34:33;27.17;;;20.20;;
60257;SDS011;46115;44.484;11.314;2022-11-20T08:38:37;21.33;;;17.67;;
60257;SDS011;46115;44.484;11.314;2022-11-20T08:42:45;20.90;;;18.17;;
60257;SDS011;46115;44.484;11.314;2022-11-20T08:46:48;20.95;;;16.63;;
60257;SDS011;46115;44.484;11.314;2022-11-20T08:50:50;17.25;;;15.45;;
60257;SDS011;46115;44.484;11.314;2022-11-20T08:54:54;19.13;;;16.95;;
60257;SDS011;46115;44.484;11.314;2022-11-20T08:58:56;19.30;;;17.25;;
60257;SDS011;46115;44.484;11.314;2022-11-20T09:03:00;19.38;;;16.40;;
60257;SDS011;46115;44.484;11.314;2022-11-20T09:07:02;18.95;;;16.95;;
60257;SDS011;46115;44.484;11.314;2022-11-20T09:11:06;18.30;;;15.20;;
60257;SDS011;46115;44.484;11.314;2022-11-20T09:15:09;17.98;;;16.08;;
60257;SDS011;46115;44.484;11.314;2022-11-20T09:19:12;20.48;;;18.27;;
60257;SDS011;46115;44.484;11.314;2022-11-20T09:23:14;24.48;;;18.52;;
60257;SDS011;46115;44.484;11.314;2022-11-20T09:27:18;25.58;;;17.88;;
60257;SDS011;46115;44.484;11.314;2022-11-20T09:31:23;27.98;;;18.98;;
60257;SDS011;46115;44.484;11.314;2022-11-20T09:35:26;29.80;;;21.45;;
60257;SDS011;46115;44.484;11.314;2022-11-20T09:39:29;28.05;;;20.92;;
60257;SDS011;46115;44.484;11.314;2022-11-20T09:43:40;30.73;;;19.73;;
60257;SDS011;46115;44.484;11.314;2022-11-20T09:47:58;26.02;;;19.38;;
60257;SDS011;46115;44.484;11.314;2022-11-20T09:52:17;27.65;;;19.63;;
60257;SDS011;46115;44.484;11.314;2022-11-20T10:00:32;27.15;;;19.85;;
60257;SDS011;46115;44.484;11.314;2022-11-20T10:04:36;29.42;;;21.08;;
60257;SDS011;46115;44.484;11.314;2022-11-20T10:08:46;31.05;;;20.85;;
60257;SDS011;46115;44.484;11.314;2022-11-20T10:13:11;30.90;;;21.17;;
60257;SDS011;46115;44.484;11.314;2022-11-20T10:17:27;35.05;;;23.63;;
60257;SDS011;46115;44.484;11.314;2022-11-20T10:21:47;33.85;;;23.60;;
60257;SDS011;46115;44.484;11.314;2022-11-20T10:26:01;39.17;;;23.73;;
60257;SDS011;46115;44.484;11.314;2022-11-20T10:30:07;39.58;;;26.17;;
60257;SDS011;46115;44.484;11.314;2022-11-20T10:34:14;37.05;;;25.25;;
60257;SDS011;46115;44.484;11.314;2022-11-20T10:38:23;38.22;;;24.60;;
60257;SDS011;46115;44.484;11.314;2022-11-20T10:42:31;35.75;;;24.45;;
60257;SDS011;46115;44.484;11.314;2022-11-20T10:46:42;35.95;;;24.67;;
60257;SDS011;46115;44.484;11.314;2022-11-20T10:50:53;35.63;;;25.13;;
60257;SDS011;46115;44.484;11.314;2022-11-20T10:55:04;34.65;;;24.30;;
60257;SDS011;46115;44.484;11.314;2022-11-20T11:03:51;36.38;;;24.95;;
60257;SDS011;46115;44.484;11.314;2022-11-20T11:07:56;37.20;;;24.75;;
60257;SDS011;46115;44.484;11.314;2022-11-20T11:12:00;37.25;;;25.17;;
60257;SDS011;46115;44.484;11.314;2022-11-20T11:16:02;42.55;;;27.33;;
60257;SDS011;46115;44.484;11.314;2022-11-20T11:20:06;42.97;;;27.83;;
60257;SDS011;46115;44.484;11.314;2022-11-20T11:24:21;41.50;;;27.70;;
60257;SDS011;46115;44.484;11.314;2022-11-20T11:28:25;43.58;;;27.83;;
60257;SDS011;46115;44.484;11.314;2022-11-20T11:32:28;39.08;;;25.77;;
60257;SDS011;46115;44.484;11.314;2022-11-20T11:36:31;38.63;;;25.77;;
60257;SDS011;46115;44.484;11.314;2022-11-20T11:40:37;34.85;;;24.45;;
60257;SDS011;46115;44.484;11.314;2022-11-20T11:44:43;36.50;;;24.20;;
60257;SDS011;46115;44.484;11.314;2022-11-20T11:49:13;35.80;;;23.45;;
60257;SDS011;46115;44.484;11.314;2022-11-20T11:53:18;36.60;;;23.13;;
60257;SDS011;46115;44.484;11.314;2022-11-20T11:57:26;29.77;;;18.63;;
60257;SDS011;46115;44.484;11.314;2022-11-20T12:05:42;35.10;;;24.13;;
60257;SDS011;46115;44.484;11.314;2022-11-20T12:09:48;40.45;;;25.50;;
60257;SDS011;46115;44.484;11.314;2022-11-20T12:13:57;40.38;;;24.92;;
60257;SDS011;46115;44.484;11.314;2022-11-20T12:18:07;37.55;;;24.60;;
60257;SDS011;46115;44.484;11.314;2022-11-20T12:22:14;32.25;;;21.45;;
60257;SDS011;46115;44.484;11.314;2022-11-20T12:26:31;34.63;;;22.15;;
60257;SDS011;46115;44.484;11.314;2022-11-20T12:30:48;33.58;;;20.80;;
60257;SDS011;46115;44.484;11.314;2022-11-20T12:35:04;29.98;;;18.98;;
60257;SDS011;46115;44.484;11.314;2022-11-20T12:39:22;26.23;;;18.13;;
60257;SDS011;46115;44.484;11.314;2022-11-20T12:43:37;27.25;;;19.55;;
60257;SDS011;46115;44.484;11.314;2022-11-20T12:48:17;27.92;;;18.65;;
60257;SDS011;46115;44.484;11.314;2022-11-20T12:52:46;21.88;;;14.23;;
60257;SDS011;46115;44.484;11.314;2022-11-20T12:56:53;24.15;;;15.07;;
60257;SDS011;46115;44.484;11.314;2022-11-20T13:01:03;22.27;;;11.77;;
60257;SDS011;46115;44.484;11.314;2022-11-20T13:05:39;19.13;;;11.43;;
60257;SDS011;46115;44.484;11.314;2022-11-20T13:09:51;16.63;;;10.73;;
60257;SDS011;46115;44.484;11.314;2022-11-20T13:14:04;19.60;;;10.48;;
60257;SDS011;46115;44.484;11.314;2022-11-20T13:18:14;17.73;;;10.80;;
60257;SDS011;46115;44.484;11.314;2022-11-20T13:22:25;18.40;;;11.40;;
60257;SDS011;46115;44.484;11.314;2022-11-20T13:26:28;17.67;;;12.23;;
60257;SDS011;46115;44.484;11.314;2022-11-20T13:30:31;18.40;;;12.68;;
60257;SDS011;46115;44.484;11.314;2022-11-20T13:34:33;21.27;;;13.00;;
60257;SDS011;46115;44.484;11.314;2022-11-20T13:38:42;21.08;;;13.45;;
60257;SDS011;46115;44.484;11.314;2022-11-20T13:42:51;20.10;;;13.13;;
60257;SDS011;46115;44.484;11.314;2022-11-20T13:46:57;19.50;;;12.10;;
60257;SDS011;46115;44.484;11.314;2022-11-20T13:55:32;19.55;;;12.02;;
60257;SDS011;46115;44.484;11.314;2022-11-20T13:59:42;18.25;;;11.88;;
60257;SDS011;46115;44.484;11.314;2022-11-20T14:03:54;23.42;;;11.93;;
60257;SDS011;46115;44.484;11.314;2022-11-20T14:07:57;22.00;;;12.70;;
60257;SDS011;46115;44.484;11.314;2022-11-20T14:12:01;18.67;;;12.00;;
60257;SDS011;46115;44.484;11.314;2022-11-20T14:16:05;19.45;;;12.35;;
60257;SDS011;46115;44.484;11.314;2022-11-20T14:20:11;20.02;;;12.82;;
60257;SDS011;46115;44.484;11.314;2022-11-20T14:24:18;20.48;;;11.77;;
60257;SDS011;46115;44.484;11.314;2022-11-20T14:28:24;14.77;;;9.30;;
60257;SDS011;46115;44.484;11.314;2022-11-20T14:32:29;14.05;;;9.32;;
60257;SDS011;46115;44.484;11.314;2022-11-20T14:36:32;17.77;;;10.80;;
60257;SDS011;46115;44.484;11.314;2022-11-20T14:40:35;14.02;;;8.88;;
60257;SDS011;46115;44.484;11.314;2022-11-20T14:44:39;15.02;;;8.82;;
60257;SDS011;46115;44.484;11.314;2022-11-20T14:48:44;13.57;;;6.68;;
60257;SDS011;46115;44.484;11.314;2022-11-20T14:52:53;10.52;;;6.57;;
60257;SDS011;46115;44.484;11.314;2022-11-20T14:56:57;9.70;;;6.03;;
60257;SDS011;46115;44.484;11.314;2022-11-20T15:01:03;10.93;;;6.20;;
60257;SDS011;46115;44.484;11.314;2022-11-20T15:05:06;9.25;;;6.00;;
60257;SDS011;46115;44.484;11.314;2022-11-20T15:09:12;11.15;;;6.30;;
60257;SDS011;46115;44.484;11.314;2022-11-20T15:13:16;10.00;;;6.55;;
60257;SDS011;46115;44.484;11.314;2022-11-20T15:17:26;10.80;;;6.28;;
60257;SDS011;46115;44.484;11.314;2022-11-20T15:21:29;10.43;;;6.07;;
60257;SDS011;46115;44.484;11.314;2022-11-20T15:29:33;12.18;;;6.50;;
60257;SDS011;46115;44.484;11.314;2022-11-20T15:33:37;11.30;;;6.30;;
60257;SDS011;46115;44.484;11.314;2022-11-20T15:37:39;12.35;;;6.95;;
60257;SDS011;46115;44.484;11.314;2022-11-20T15:41:42;12.52;;;6.82;;
60257;SDS011;46115;44.484;11.314;2022-11-20T15:45:45;14.55;;;6.90;;
60257;SDS011;46115;44.484;11.314;2022-11-20T15:49:52;14.95;;;6.75;;
60257;SDS011;46115;44.484;11.314;2022-11-20T15:53:54;13.50;;;7.95;;
60257;SDS011;46115;44.484;11.314;2022-11-20T15:57:57;16.48;;;8.70;;
60257;SDS011;46115;44.484;11.314;2022-11-20T16:02:00;15.15;;;7.68;;
60257;SDS011;46115;44.484;11.314;2022-11-20T23:06:09;9.90;;;6.20;;
60257;SDS011;46115;44.484;11.314;2022-11-20T23:10:12;11.95;;;6.63;;
60257;SDS011;46115;44.484;11.314;2022-11-20T23:14:14;9.63;;;6.53;;
60257;SDS011;46115;44.484;11.314;2022-11-20T23:18:17;8.70;;;6.22;;
60257;SDS011;46115;44.484;11.314;2022-11-20T23:26:23;8.55;;;5.82;;
60257;SDS011;46115;44.484;11.314;2022-11-20T23:30:27;9.55;;;6.70;;
60257;SDS011;46115;44.484;11.314;2022-11-20T23:34:30;9.20;;;6.07;;
60257;SDS011;46115;44.484;11.314;2022-11-20T23:42:36;10.88;;;5.88;;
60257;SDS011;46115;44.484;11.314;2022-11-20T23:46:58;7.43;;;6.10;;
60257;SDS011;46115;44.484;11.314;2022-11-20T23:51:01;10.85;;;6.63;;
60257;SDS011;46115;44.484;11.314;2022-11-20T23:55:06;8.13;;;6.30;;
60257;SDS011;46115;44.484;11.314;2022-11-20T23:59:09;10.05;;;6.53;;
